createdAt,value
2023-09-06T00:00:31.659Z,0
2023-09-06T00:01:31.621Z,0
2023-09-06T00:02:31.605Z,0
2023-09-06T00:03:31.730Z,0
2023-09-06T00:04:31.824Z,0
2023-09-06T00:05:31.618Z,0
2023-09-06T00:06:31.753Z,0
2023-09-06T00:07:31.624Z,0
2023-09-06T00:08:31.596Z,0
2023-09-06T00:09:31.649Z,0
2023-09-06T00:10:31.628Z,0
2023-09-06T00:11:31.618Z,0
2023-09-06T00:12:31.640Z,0
2023-09-06T00:13:31.617Z,0
2023-09-06T00:14:31.613Z,0
2023-09-06T00:15:31.668Z,0
2023-09-06T00:16:31.750Z,0
2023-09-06T00:17:31.682Z,0
2023-09-06T00:18:32.147Z,0
2023-09-06T00:19:31.677Z,0
2023-09-06T00:20:31.632Z,0
2023-09-06T00:21:31.666Z,0
2023-09-06T00:22:31.639Z,0
2023-09-06T00:23:31.621Z,0
2023-09-06T00:24:31.650Z,0
2023-09-06T00:25:31.622Z,0
2023-09-06T00:26:31.636Z,0
2023-09-06T00:27:31.684Z,0
2023-09-06T00:28:31.585Z,0
2023-09-06T00:29:31.618Z,0
2023-09-06T00:30:31.656Z,0
2023-09-06T00:31:31.774Z,0
2023-09-06T00:32:31.631Z,0
2023-09-06T00:33:31.658Z,0
2023-09-06T00:34:31.620Z,0
2023-09-06T00:35:31.604Z,0
2023-09-06T00:36:31.633Z,0
2023-09-06T00:37:31.605Z,0
2023-09-06T00:38:31.810Z,0
2023-09-06T00:39:31.661Z,0
2023-09-06T00:40:31.669Z,0
2023-09-06T00:41:31.610Z,0
2023-09-06T00:42:32.691Z,0
2023-09-06T00:43:31.632Z,0
2023-09-06T00:44:31.632Z,0
2023-09-06T00:45:31.647Z,0
2023-09-06T00:46:31.646Z,0
2023-09-06T00:47:31.694Z,0
2023-09-06T00:48:31.859Z,0
2023-09-06T00:49:31.609Z,0
2023-09-06T00:50:31.653Z,0
2023-09-06T00:51:31.624Z,0
2023-09-06T00:52:31.595Z,0
2023-09-06T00:53:31.615Z,0
2023-09-06T00:54:31.675Z,0
2023-09-06T00:55:31.657Z,0
2023-09-06T00:56:31.615Z,0
2023-09-06T00:57:31.667Z,0
2023-09-06T00:58:31.594Z,0
2023-09-06T00:59:31.654Z,0
2023-09-06T01:00:31.701Z,0
2023-09-06T01:01:31.724Z,0
2023-09-06T01:02:31.681Z,0
2023-09-06T01:03:31.755Z,0
2023-09-06T01:04:31.661Z,0
2023-09-06T01:05:31.617Z,0
2023-09-06T01:06:31.660Z,0
2023-09-06T01:07:31.611Z,0
2023-09-06T01:08:31.588Z,0
2023-09-06T01:09:31.676Z,0
2023-09-06T01:10:31.652Z,0
2023-09-06T01:11:31.609Z,0
2023-09-06T01:12:31.644Z,0
2023-09-06T01:13:31.612Z,0
2023-09-06T01:14:31.600Z,0
2023-09-06T01:15:31.715Z,0
2023-09-06T01:16:31.727Z,0
2023-09-06T01:17:31.702Z,0
2023-09-06T01:18:31.632Z,0
2023-09-06T01:19:31.619Z,0
2023-09-06T01:20:31.628Z,0
2023-09-06T01:21:31.641Z,0
2023-09-06T01:22:31.604Z,0
2023-09-06T01:23:31.606Z,0
2023-09-06T01:24:31.625Z,0
2023-09-06T01:25:31.757Z,0
2023-09-06T01:26:31.626Z,0
2023-09-06T01:27:31.648Z,0
2023-09-06T01:28:31.884Z,0
2023-09-06T01:29:31.614Z,0
2023-09-06T01:30:31.884Z,0
2023-09-06T01:31:31.669Z,0
2023-09-06T01:32:31.611Z,0
2023-09-06T01:33:31.637Z,0
2023-09-06T01:34:31.599Z,0
2023-09-06T01:35:31.598Z,0
2023-09-06T01:36:31.667Z,0
2023-09-06T01:37:31.622Z,0
2023-09-06T01:38:31.645Z,0
2023-09-06T01:39:31.659Z,0
2023-09-06T01:40:31.761Z,0
2023-09-06T01:41:31.827Z,0
2023-09-06T01:42:31.808Z,0
2023-09-06T01:43:31.784Z,0
2023-09-06T01:44:31.763Z,0
2023-09-06T01:45:31.769Z,0
2023-09-06T01:46:31.907Z,0
2023-09-06T01:47:31.766Z,0
2023-09-06T01:48:31.748Z,0
2023-09-06T01:49:31.720Z,0
2023-09-06T01:50:31.777Z,0
2023-09-06T01:51:31.714Z,0
2023-09-06T01:52:31.726Z,0
2023-09-06T01:53:31.735Z,0
2023-09-06T01:54:31.780Z,0
2023-09-06T01:55:31.778Z,0
2023-09-06T01:56:31.687Z,0
2023-09-06T01:57:31.754Z,0
2023-09-06T01:58:31.788Z,0
2023-09-06T01:59:31.702Z,0
2023-09-06T02:00:31.772Z,0
2023-09-06T02:01:31.801Z,0
2023-09-06T02:02:31.792Z,0
2023-09-06T02:03:31.767Z,0
2023-09-06T02:04:31.872Z,0
2023-09-06T02:05:31.722Z,0
2023-09-06T02:06:31.682Z,0
2023-09-06T02:07:31.605Z,0
2023-09-06T02:08:31.652Z,0
2023-09-06T02:09:31.597Z,0
2023-09-06T02:10:31.635Z,0
2023-09-06T02:11:31.605Z,0
2023-09-06T02:12:31.620Z,0
2023-09-06T02:13:31.661Z,0
2023-09-06T02:14:31.645Z,0
2023-09-06T02:15:31.635Z,0
2023-09-06T02:16:31.639Z,0
2023-09-06T02:17:31.641Z,0
2023-09-06T02:18:31.826Z,0
2023-09-06T02:19:31.609Z,0
2023-09-06T02:20:31.601Z,0
2023-09-06T02:21:31.582Z,0
2023-09-06T02:22:31.617Z,0
2023-09-06T02:23:31.664Z,0
2023-09-06T02:24:31.609Z,0
2023-09-06T02:25:31.619Z,0
2023-09-06T02:26:31.638Z,0
2023-09-06T02:27:31.624Z,0
2023-09-06T02:28:32.069Z,0
2023-09-06T02:29:31.588Z,0
2023-09-06T02:30:31.648Z,0
2023-09-06T02:31:31.633Z,0
2023-09-06T02:32:31.715Z,0
2023-09-06T02:33:31.691Z,0
2023-09-06T02:34:31.672Z,0
2023-09-06T02:35:31.618Z,0
2023-09-06T02:36:31.635Z,0
2023-09-06T02:37:31.571Z,0
2023-09-06T02:38:31.700Z,0
2023-09-06T02:39:31.607Z,0
2023-09-06T02:40:31.717Z,0
2023-09-06T02:41:31.599Z,0
2023-09-06T02:42:31.623Z,0
2023-09-06T02:43:31.660Z,0
2023-09-06T02:44:31.700Z,0
2023-09-06T02:45:31.721Z,0
2023-09-06T02:46:31.624Z,0
2023-09-06T02:47:31.658Z,0
2023-09-06T02:48:31.616Z,0
2023-09-06T02:49:31.586Z,0
2023-09-06T02:50:31.613Z,0
2023-09-06T02:51:31.594Z,0
2023-09-06T02:52:31.672Z,0
2023-09-06T02:53:31.586Z,0
2023-09-06T02:54:31.652Z,0
2023-09-06T02:55:31.585Z,0
2023-09-06T02:56:31.600Z,0
2023-09-06T02:57:31.653Z,0
2023-09-06T02:58:31.694Z,0
2023-09-06T02:59:31.601Z,0
2023-09-06T03:00:31.597Z,0
2023-09-06T03:01:31.671Z,0
2023-09-06T03:02:31.626Z,0
2023-09-06T03:03:31.712Z,0
2023-09-06T03:04:31.631Z,0
2023-09-06T03:05:31.614Z,0
2023-09-06T03:06:31.660Z,0
2023-09-06T03:07:31.618Z,0
2023-09-06T03:08:31.939Z,0
2023-09-06T03:09:31.685Z,0
2023-09-06T03:10:31.708Z,0
2023-09-06T03:11:31.695Z,0
2023-09-06T03:12:31.763Z,0
2023-09-06T03:13:31.769Z,0
2023-09-06T03:14:31.592Z,0
2023-09-06T03:15:32.557Z,0
2023-09-06T03:16:31.642Z,0
2023-09-06T03:17:31.761Z,0
2023-09-06T03:18:32.066Z,0
2023-09-06T03:19:31.706Z,0
2023-09-06T03:20:31.768Z,0
2023-09-06T03:21:31.589Z,0
2023-09-06T03:22:31.617Z,0
2023-09-06T03:23:31.746Z,0
2023-09-06T03:24:31.670Z,0
2023-09-06T03:25:31.711Z,0
2023-09-06T03:26:31.604Z,0
2023-09-06T03:27:31.585Z,0
2023-09-06T03:28:31.852Z,0
2023-09-06T03:29:31.610Z,0
2023-09-06T03:30:31.760Z,0
2023-09-06T03:31:31.889Z,0
2023-09-06T03:32:31.849Z,0
2023-09-06T03:33:31.723Z,0
2023-09-06T03:34:31.600Z,0
2023-09-06T03:35:31.721Z,0
2023-09-06T03:36:31.765Z,0
2023-09-06T03:37:31.618Z,0
2023-09-06T03:38:31.979Z,0
2023-09-06T03:39:31.714Z,0
2023-09-06T03:40:31.805Z,0
2023-09-06T03:41:31.649Z,0
2023-09-06T03:42:31.736Z,0
2023-09-06T03:43:32.344Z,0
2023-09-06T03:44:31.728Z,0
2023-09-06T03:45:31.745Z,0
2023-09-06T03:46:31.834Z,0
2023-09-06T03:47:31.797Z,0
2023-09-06T03:48:32.238Z,0
2023-09-06T03:49:31.861Z,0
2023-09-06T03:50:31.692Z,0
2023-09-06T03:51:31.727Z,0
2023-09-06T03:52:31.891Z,0
2023-09-06T03:53:31.745Z,0
2023-09-06T03:54:31.732Z,0
2023-09-06T03:55:31.614Z,0
2023-09-06T03:56:31.583Z,0
2023-09-06T03:57:31.606Z,0
2023-09-06T03:58:31.944Z,0
2023-09-06T03:59:31.601Z,0
2023-09-06T04:00:31.642Z,0
2023-09-06T04:01:31.749Z,0
2023-09-06T04:02:31.843Z,0.36
2023-09-06T04:03:31.741Z,0.36
2023-09-06T04:04:31.618Z,0.85
2023-09-06T04:05:31.640Z,0.36
2023-09-06T04:06:31.616Z,1.71
2023-09-06T04:07:31.593Z,0.85
2023-09-06T04:08:32.097Z,1.71
2023-09-06T04:09:31.584Z,1.22
2023-09-06T04:10:31.634Z,1.71
2023-09-06T04:11:31.667Z,2.08
2023-09-06T04:12:31.569Z,2.08
2023-09-06T04:13:31.638Z,1.71
2023-09-06T04:14:31.698Z,2.57
2023-09-06T04:15:31.651Z,2.57
2023-09-06T04:16:31.671Z,2.08
2023-09-06T04:17:31.623Z,2.57
2023-09-06T04:18:31.847Z,2.94
2023-09-06T04:19:31.587Z,3.79
2023-09-06T04:20:31.580Z,3.79
2023-09-06T04:21:31.592Z,3.79
2023-09-06T04:22:31.620Z,4.28
2023-09-06T04:23:31.622Z,3.79
2023-09-06T04:24:31.611Z,4.28
2023-09-06T04:25:31.587Z,4.28
2023-09-06T04:26:31.664Z,4.77
2023-09-06T04:27:31.600Z,4.77
2023-09-06T04:28:32.064Z,5.63
2023-09-06T04:29:31.614Z,4.77
2023-09-06T04:30:31.632Z,5.14
2023-09-06T04:31:31.687Z,5.63
2023-09-06T04:32:31.666Z,5.99
2023-09-06T04:33:31.616Z,5.63
2023-09-06T04:34:31.610Z,5.99
2023-09-06T04:35:31.598Z,6.48
2023-09-06T04:36:31.580Z,6.48
2023-09-06T04:37:31.721Z,7.34
2023-09-06T04:38:32.038Z,7.34
2023-09-06T04:39:31.641Z,7.7
2023-09-06T04:40:31.584Z,8.19
2023-09-06T04:41:31.641Z,8.56
2023-09-06T04:42:31.588Z,9.91
2023-09-06T04:43:31.585Z,9.05
2023-09-06T04:44:31.632Z,8.19
2023-09-06T04:45:31.602Z,8.56
2023-09-06T04:46:31.626Z,8.56
2023-09-06T04:47:31.676Z,9.05
2023-09-06T04:48:31.881Z,8.56
2023-09-06T04:49:31.607Z,9.54
2023-09-06T04:50:31.648Z,10.77
2023-09-06T04:51:31.591Z,12.48
2023-09-06T04:52:31.610Z,14.31
2023-09-06T04:53:31.594Z,16.88
2023-09-06T04:54:31.678Z,15.53
2023-09-06T04:55:31.605Z,16.02
2023-09-06T04:56:31.594Z,15.53
2023-09-06T04:57:31.586Z,16.02
2023-09-06T04:58:31.585Z,17.73
2023-09-06T04:59:31.641Z,17.25
2023-09-06T05:00:31.696Z,18.11
2023-09-06T05:01:31.605Z,19.45
2023-09-06T05:02:31.612Z,19.45
2023-09-06T05:03:31.688Z,20.8
2023-09-06T05:04:31.611Z,20.8
2023-09-06T05:05:31.784Z,19.94
2023-09-06T05:06:31.587Z,22.51
2023-09-06T05:07:31.704Z,22.02
2023-09-06T05:08:32.006Z,21.65
2023-09-06T05:09:31.633Z,22.51
2023-09-06T05:10:31.572Z,25.56
2023-09-06T05:11:31.554Z,25.07
2023-09-06T05:12:31.631Z,27.28
2023-09-06T05:13:31.670Z,28.99
2023-09-06T05:14:31.690Z,29.85
2023-09-06T05:15:31.577Z,31.56
2023-09-06T05:16:31.684Z,31.56
2023-09-06T05:17:31.636Z,31.56
2023-09-06T05:18:31.827Z,29.85
2023-09-06T05:19:31.600Z,28.99
2023-09-06T05:20:31.587Z,29.85
2023-09-06T05:21:31.743Z,33.39
2023-09-06T05:22:31.572Z,36.82
2023-09-06T05:23:31.566Z,38.53
2023-09-06T05:24:31.595Z,36.82
2023-09-06T05:25:31.571Z,38.53
2023-09-06T05:26:31.596Z,36.33
2023-09-06T05:27:31.547Z,36.33
2023-09-06T05:28:31.968Z,38.17
2023-09-06T05:29:31.605Z,37.68
2023-09-06T05:30:31.568Z,37.68
2023-09-06T05:31:31.608Z,35.48
2023-09-06T05:32:31.627Z,34.62
2023-09-06T05:33:31.590Z,35.97
2023-09-06T05:34:31.729Z,37.68
2023-09-06T05:35:31.653Z,42.94
2023-09-06T05:36:31.592Z,57.62
2023-09-06T05:37:31.612Z,58.48
2023-09-06T05:38:31.620Z,45.87
2023-09-06T05:39:31.596Z,41.59
2023-09-06T05:40:31.654Z,39.88
2023-09-06T05:41:31.608Z,35.11
2023-09-06T05:42:31.750Z,32.9
2023-09-06T05:43:31.566Z,39.39
2023-09-06T05:44:31.592Z,42.45
2023-09-06T05:45:31.662Z,51.14
2023-09-06T05:46:34.071Z,53.7
2023-09-06T05:47:31.788Z,50.28
2023-09-06T05:48:31.920Z,44.16
2023-09-06T05:49:31.599Z,35.11
2023-09-06T05:50:31.643Z,40.73
2023-09-06T05:51:31.587Z,43.8
2023-09-06T05:52:31.584Z,42.94
2023-09-06T05:53:31.600Z,41.1
2023-09-06T05:54:31.595Z,34.62
2023-09-06T05:55:31.686Z,39.39
2023-09-06T05:56:31.625Z,48.93
2023-09-06T05:57:31.597Z,48.56
2023-09-06T05:58:31.576Z,39.88
2023-09-06T05:59:31.645Z,38.53
2023-09-06T06:00:31.607Z,34.25
2023-09-06T06:01:31.667Z,34.25
2023-09-06T06:02:31.686Z,37.68
2023-09-06T06:03:31.607Z,48.56
2023-09-06T06:04:31.598Z,45.51
2023-09-06T06:05:31.576Z,32.42
2023-09-06T06:06:31.627Z,32.05
2023-09-06T06:07:31.603Z,32.42
2023-09-06T06:08:31.999Z,33.39
2023-09-06T06:09:31.605Z,34.25
2023-09-06T06:10:31.782Z,35.48
2023-09-06T06:11:31.548Z,34.62
2023-09-06T06:12:31.611Z,36.82
2023-09-06T06:13:31.614Z,38.17
2023-09-06T06:14:31.635Z,39.02
2023-09-06T06:15:31.579Z,46.36
2023-09-06T06:16:31.670Z,48.56
2023-09-06T06:17:31.618Z,47.22
2023-09-06T06:18:31.871Z,62.02
2023-09-06T06:19:31.583Z,53.7
2023-09-06T06:20:43.488Z,50.65
2023-09-06T06:21:31.654Z,46.73
2023-09-06T06:22:31.593Z,41.1
2023-09-06T06:23:31.590Z,43.8
2023-09-06T06:24:31.572Z,43.31
2023-09-06T06:25:31.584Z,89.79
2023-09-06T06:26:31.580Z,52.85
2023-09-06T06:27:31.723Z,33.76
2023-09-06T06:28:32.020Z,36.33
2023-09-06T06:29:31.666Z,39.88
2023-09-06T06:30:31.599Z,32.42
2023-09-06T06:31:31.632Z,29.48
2023-09-06T06:32:31.740Z,39.02
2023-09-06T06:33:31.701Z,56.27
2023-09-06T06:34:31.581Z,42.45
2023-09-06T06:35:31.619Z,68.02
2023-09-06T06:36:31.568Z,62.88
2023-09-06T06:37:31.568Z,135.3
2023-09-06T06:38:32.051Z,92.73
2023-09-06T06:39:31.591Z,52.85
2023-09-06T06:40:31.659Z,48.07
2023-09-06T06:41:31.649Z,42.45
2023-09-06T06:42:31.602Z,37.19
2023-09-06T06:43:31.578Z,38.53
2023-09-06T06:44:31.589Z,45.51
2023-09-06T06:45:31.614Z,45.02
2023-09-06T06:46:31.608Z,43.31
2023-09-06T06:47:31.626Z,38.53
2023-09-06T06:48:31.593Z,35.11
2023-09-06T06:49:31.614Z,35.97
2023-09-06T06:50:31.627Z,39.39
2023-09-06T06:51:31.575Z,40.24
2023-09-06T06:52:31.600Z,38.53
2023-09-06T06:53:31.588Z,40.73
2023-09-06T06:54:31.603Z,46.36
2023-09-06T06:55:31.675Z,85.02
2023-09-06T06:56:31.577Z,54.56
2023-09-06T06:57:31.602Z,50.65
2023-09-06T06:58:31.857Z,45.51
2023-09-06T06:59:31.590Z,39.39
2023-09-06T07:00:32.609Z,36.33
2023-09-06T07:01:31.622Z,37.68
2023-09-06T07:02:31.675Z,40.73
2023-09-06T07:03:31.619Z,48.07
2023-09-06T07:04:31.566Z,66.8
2023-09-06T07:05:31.634Z,59.33
2023-09-06T07:06:31.580Z,41.59
2023-09-06T07:07:31.550Z,39.02
2023-09-06T07:08:31.791Z,39.02
2023-09-06T07:09:31.677Z,39.88
2023-09-06T07:10:31.568Z,48.07
2023-09-06T07:11:31.627Z,51.5
2023-09-06T07:12:31.565Z,60.19
2023-09-06T07:13:31.617Z,97.5
2023-09-06T07:14:31.585Z,114.51
2023-09-06T07:15:31.774Z,121.36
2023-09-06T07:16:32.140Z,149.12
2023-09-06T07:17:31.769Z,171.76
2023-09-06T07:18:31.811Z,155.24
2023-09-06T07:19:31.613Z,102.27
2023-09-06T07:20:31.578Z,154.39
2023-09-06T07:21:31.585Z,53.34
2023-09-06T07:22:31.569Z,70.71
2023-09-06T07:23:31.677Z,97.13
2023-09-06T07:24:31.548Z,90.65
2023-09-06T07:25:31.591Z,75.85
2023-09-06T07:26:31.582Z,236.84
2023-09-06T07:27:31.582Z,265.47
2023-09-06T07:28:31.621Z,275.37
2023-09-06T07:29:31.595Z,311.47
2023-09-06T07:30:31.597Z,329.2
2023-09-06T07:31:31.771Z,334.83
2023-09-06T07:32:31.631Z,344.37
2023-09-06T07:33:31.594Z,327.49
2023-09-06T07:34:31.704Z,323.09
2023-09-06T07:35:33.693Z,329.2
2023-09-06T07:36:31.584Z,331.78
2023-09-06T07:37:31.584Z,336.18
2023-09-06T07:38:32.014Z,337.89
2023-09-06T07:39:31.569Z,338.75
2023-09-06T07:40:31.592Z,339.23
2023-09-06T07:41:31.666Z,338.75
2023-09-06T07:42:31.563Z,336.54
2023-09-06T07:43:31.615Z,343.52
2023-09-06T07:44:31.549Z,344.37
2023-09-06T07:45:31.596Z,348.29
2023-09-06T07:46:31.599Z,353.06
2023-09-06T07:47:31.759Z,358.32
2023-09-06T07:48:32.186Z,363.09
2023-09-06T07:49:31.699Z,363.95
2023-09-06T07:50:31.616Z,365.17
2023-09-06T07:51:31.577Z,384.25
2023-09-06T07:52:31.546Z,379.49
2023-09-06T07:53:31.602Z,371.29
2023-09-06T07:54:31.582Z,371.78
2023-09-06T07:55:31.602Z,371.78
2023-09-06T07:56:31.623Z,369.57
2023-09-06T07:57:31.572Z,369.08
2023-09-06T07:58:32.003Z,372.15
2023-09-06T07:59:31.607Z,378.63
2023-09-06T08:00:31.581Z,382.54
2023-09-06T08:01:31.622Z,389.52
2023-09-06T08:02:31.587Z,391.23
2023-09-06T08:03:31.683Z,394.66
2023-09-06T08:04:31.607Z,396.49
2023-09-06T08:05:31.616Z,390.86
2023-09-06T08:06:31.707Z,394.66
2023-09-06T08:07:31.549Z,400.77
2023-09-06T08:08:31.827Z,403.83
2023-09-06T08:09:31.570Z,406.03
2023-09-06T08:10:31.579Z,409.46
2023-09-06T08:11:31.582Z,411.17
2023-09-06T08:12:31.567Z,409.46
2023-09-06T08:13:31.613Z,408.97
2023-09-06T08:14:31.572Z,410.32
2023-09-06T08:15:31.578Z,412.03
2023-09-06T08:16:31.583Z,411.66
2023-09-06T08:17:31.660Z,413.37
2023-09-06T08:18:32.022Z,415.94
2023-09-06T08:19:31.573Z,420.35
2023-09-06T08:20:31.605Z,422.06
2023-09-06T08:21:31.609Z,429.4
2023-09-06T08:22:43.996Z,431.6
2023-09-06T08:23:31.580Z,435.88
2023-09-06T08:24:31.576Z,436.74
2023-09-06T08:25:31.557Z,437.23
2023-09-06T08:26:31.653Z,429.4
2023-09-06T08:27:31.567Z,422.42
2023-09-06T08:28:31.900Z,429.03
2023-09-06T08:29:31.600Z,444.2
2023-09-06T08:30:31.590Z,410.81
2023-09-06T08:31:31.610Z,435.88
2023-09-06T08:32:31.735Z,438.08
2023-09-06T08:33:31.681Z,441.14
2023-09-06T08:34:31.563Z,443.71
2023-09-06T08:35:31.594Z,450.2
2023-09-06T08:36:31.564Z,452.89
2023-09-06T08:37:31.600Z,455.45
2023-09-06T08:38:31.817Z,458.88
2023-09-06T08:39:31.619Z,459.37
2023-09-06T08:40:31.593Z,461.08
2023-09-06T08:41:31.590Z,453.74
2023-09-06T08:42:31.585Z,462.79
2023-09-06T08:43:31.569Z,222.9
2023-09-06T08:44:31.593Z,356.49
2023-09-06T08:45:31.575Z,100.19
2023-09-06T08:46:31.660Z,132.73
2023-09-06T08:47:31.665Z,449.34
2023-09-06T08:48:31.873Z,401.26
2023-09-06T08:49:31.596Z,447.26
2023-09-06T08:50:31.649Z,438.94
2023-09-06T08:51:31.640Z,421.2
2023-09-06T08:52:31.560Z,435.52
2023-09-06T08:53:31.722Z,471.11
2023-09-06T08:54:31.584Z,471.48
2023-09-06T08:55:31.645Z,473.2
2023-09-06T08:56:31.565Z,474.05
2023-09-06T08:57:31.618Z,477.11
2023-09-06T08:58:31.697Z,477.96
2023-09-06T08:59:31.567Z,482.37
2023-09-06T09:00:31.879Z,484.94
2023-09-06T09:01:31.780Z,488.86
2023-09-06T09:02:31.640Z,491.06
2023-09-06T09:03:32.067Z,494.48
2023-09-06T09:04:31.607Z,55.41
2023-09-06T09:05:31.630Z,265.47
2023-09-06T09:06:31.583Z,208.58
2023-09-06T09:07:31.554Z,62.88
2023-09-06T09:08:31.573Z,62.02
2023-09-06T09:09:31.603Z,248.95
2023-09-06T09:10:31.581Z,126.61
2023-09-06T09:11:31.581Z,108.39
2023-09-06T09:12:31.625Z,111.44
2023-09-06T09:13:31.823Z,68.02
2023-09-06T09:14:31.553Z,91.02
2023-09-06T09:15:31.787Z,70.71
2023-09-06T09:16:31.641Z,66.8
2023-09-06T09:17:31.637Z,150.47
2023-09-06T09:18:31.604Z,446.28
2023-09-06T09:19:31.589Z,452.4
2023-09-06T09:20:31.611Z,359.54
2023-09-06T09:21:31.569Z,258.49
2023-09-06T09:22:31.560Z,410.81
2023-09-06T09:23:31.695Z,538.28
2023-09-06T09:24:31.611Z,124.41
2023-09-06T09:25:31.586Z,70.22
2023-09-06T09:26:31.557Z,177.75
2023-09-06T09:27:31.577Z,255.44
2023-09-06T09:28:31.790Z,452.03
2023-09-06T09:29:31.562Z,497.91
2023-09-06T09:30:32.169Z,340.09
2023-09-06T09:31:31.669Z,316.61
2023-09-06T09:32:31.629Z,350.86
2023-09-06T09:33:31.677Z,340.09
2023-09-06T09:34:31.565Z,295.32
2023-09-06T09:35:31.653Z,195.61
2023-09-06T09:36:31.567Z,426.83
2023-09-06T09:37:31.550Z,238.92
2023-09-06T09:38:31.727Z,337.03
2023-09-06T09:39:31.623Z,422.91
2023-09-06T09:40:42.065Z,347.43
2023-09-06T09:41:31.590Z,158.3
2023-09-06T09:42:31.658Z,321.37
2023-09-06T09:43:33.304Z,410.32
2023-09-06T09:44:31.579Z,297.15
2023-09-06T09:45:31.656Z,170.41
2023-09-06T09:46:31.609Z,138.36
2023-09-06T09:47:52.544Z,474.91
2023-09-06T09:48:31.838Z,465
2023-09-06T09:49:31.731Z,78.41
2023-09-06T09:50:31.541Z,57.25
2023-09-06T09:51:31.640Z,53.7
2023-09-06T09:52:31.576Z,57.62
2023-09-06T09:53:31.534Z,55.9
2023-09-06T09:54:31.622Z,151.82
2023-09-06T09:55:31.633Z,293.61
2023-09-06T09:56:31.564Z,270.61
2023-09-06T09:57:31.593Z,230.24
2023-09-06T09:58:31.640Z,133.95
2023-09-06T09:59:31.642Z,164.78
2023-09-06T10:00:31.632Z,167.36
2023-09-06T10:01:31.633Z,203.81
2023-09-06T10:02:40.272Z,170.05
2023-09-06T10:03:31.860Z,317.95
2023-09-06T10:04:31.776Z,211.64
2023-09-06T10:05:31.564Z,137.02
2023-09-06T10:06:31.579Z,117.07
2023-09-06T10:07:46.831Z,365.66
2023-09-06T10:08:31.565Z,244.18
2023-09-06T10:09:31.610Z,235.49
2023-09-06T10:10:31.541Z,184.36
2023-09-06T10:11:31.578Z,68.02
2023-09-06T10:12:31.620Z,83.19
2023-09-06T10:13:31.927Z,75.85
2023-09-06T10:14:31.580Z,79.76
2023-09-06T10:15:31.652Z,67.65
2023-09-06T10:16:31.643Z,61.53
2023-09-06T10:17:31.605Z,50.28
2023-09-06T10:18:31.787Z,51.14
2023-09-06T10:19:40.826Z,46.73
2023-09-06T10:20:31.654Z,59.33
2023-09-06T10:21:31.599Z,63.24
2023-09-06T10:22:31.564Z,50.28
2023-09-06T10:23:31.599Z,46.73
2023-09-06T10:24:31.594Z,46.36
2023-09-06T10:25:31.591Z,50.28
2023-09-06T10:26:31.557Z,47.71
2023-09-06T10:27:31.612Z,65.94
2023-09-06T10:28:31.701Z,66.31
2023-09-06T10:29:31.579Z,58.97
2023-09-06T10:30:31.618Z,60.19
2023-09-06T10:31:31.672Z,59.33
2023-09-06T10:32:31.665Z,70.71
2023-09-06T10:33:31.558Z,78.41
2023-09-06T10:34:31.583Z,70.71
2023-09-06T10:35:31.570Z,74.99
2023-09-06T10:36:31.637Z,75.48
2023-09-06T10:37:31.582Z,62.39
2023-09-06T10:38:31.786Z,43.31
2023-09-06T10:39:31.579Z,42.94
2023-09-06T10:40:31.549Z,43.31
2023-09-06T10:41:31.576Z,59.82
2023-09-06T10:42:31.542Z,44.65
2023-09-06T10:43:32.694Z,47.71
2023-09-06T10:44:31.558Z,50.28
2023-09-06T10:45:31.596Z,46.73
2023-09-06T10:46:31.769Z,61.53
2023-09-06T10:47:31.581Z,63.73
2023-09-06T10:48:31.733Z,63.73
2023-09-06T10:49:34.430Z,42.45
2023-09-06T10:50:31.555Z,64.96
2023-09-06T10:51:31.598Z,41.59
2023-09-06T10:52:31.567Z,41.1
2023-09-06T10:53:31.584Z,41.59
2023-09-06T10:54:31.670Z,41.96
2023-09-06T10:55:31.719Z,41.96
2023-09-06T10:56:31.559Z,41.1
2023-09-06T10:57:31.559Z,44.16
2023-09-06T10:58:31.892Z,62.39
2023-09-06T10:59:31.569Z,251.15
2023-09-06T11:00:31.682Z,145.7
2023-09-06T11:01:39.769Z,139.58
2023-09-06T11:02:31.800Z,84.04
2023-09-06T11:03:31.702Z,278.44
2023-09-06T11:04:31.612Z,277.58
2023-09-06T11:05:31.710Z,104.48
2023-09-06T11:06:31.577Z,227.3
2023-09-06T11:07:43.193Z,212.98
2023-09-06T11:08:31.994Z,137.87
2023-09-06T11:09:31.569Z,107.9
2023-09-06T11:10:31.581Z,127.1
2023-09-06T11:11:31.541Z,348.78
2023-09-06T11:12:31.582Z,243.32
2023-09-06T11:13:31.665Z,313.18
2023-09-06T11:14:31.549Z,497.05
2023-09-06T11:15:31.617Z,516.99
2023-09-06T11:16:31.604Z,332.63
2023-09-06T11:17:31.649Z,151.33
2023-09-06T11:18:31.950Z,155.24
2023-09-06T11:19:31.516Z,284.92
2023-09-06T11:20:31.565Z,314.03
2023-09-06T11:21:31.579Z,237.21
2023-09-06T11:22:31.583Z,314.89
2023-09-06T11:23:31.538Z,369.94
2023-09-06T11:24:31.557Z,414.72
2023-09-06T11:25:31.654Z,412.52
2023-09-06T11:26:31.562Z,229.01
2023-09-06T11:27:31.537Z,127.1
2023-09-06T11:28:31.973Z,140.93
2023-09-06T11:29:31.573Z,247.24
2023-09-06T11:30:31.616Z,264.61
2023-09-06T11:31:31.865Z,291.4
2023-09-06T11:32:31.599Z,461.08
2023-09-06T11:33:31.676Z,505.37
2023-09-06T11:34:31.558Z,459.74
2023-09-06T11:35:31.587Z,222.9
2023-09-06T11:36:31.600Z,147.05
2023-09-06T11:37:31.603Z,195.61
2023-09-06T11:38:32.202Z,55.9
2023-09-06T11:39:31.541Z,310.98
2023-09-06T11:40:31.647Z,397.71
2023-09-06T11:41:31.546Z,443.71
2023-09-06T11:42:31.632Z,517.97
2023-09-06T11:43:31.585Z,475.4
2023-09-06T11:44:31.605Z,520.54
2023-09-06T11:45:31.639Z,524.82
2023-09-06T11:46:31.747Z,293.24
2023-09-06T11:47:31.671Z,421.57
2023-09-06T11:48:31.877Z,333.12
2023-09-06T11:49:31.617Z,356.12
2023-09-06T11:50:32.145Z,414.23
2023-09-06T11:51:31.543Z,345.72
2023-09-06T11:52:34.622Z,341.32
2023-09-06T11:53:31.531Z,374.35
2023-09-06T11:54:31.539Z,375.2
2023-09-06T11:55:31.746Z,329.2
2023-09-06T11:56:32.145Z,244.18
2023-09-06T11:57:31.725Z,127.96
2023-09-06T11:58:31.780Z,185.58
2023-09-06T11:59:31.546Z,70.22
2023-09-06T12:00:31.727Z,62.88
2023-09-06T12:01:31.618Z,73.65
2023-09-06T12:02:31.664Z,114.02
2023-09-06T12:03:31.630Z,99.34
2023-09-06T12:04:31.561Z,99.34
2023-09-06T12:05:46.192Z,115.36
2023-09-06T12:06:31.679Z,100.19
2023-09-06T12:07:31.579Z,120.5
2023-09-06T12:08:31.908Z,104.96
2023-09-06T12:09:31.549Z,101.41
2023-09-06T12:10:31.527Z,60.68
2023-09-06T12:11:31.569Z,58.97
2023-09-06T12:12:31.601Z,61.53
2023-09-06T12:13:31.583Z,64.59
2023-09-06T12:14:31.591Z,59.82
2023-09-06T12:15:31.625Z,58.97
2023-09-06T12:16:31.593Z,81.97
2023-09-06T12:17:31.604Z,64.1
2023-09-06T12:18:32.022Z,60.68
2023-09-06T12:19:31.554Z,60.68
2023-09-06T12:20:31.638Z,63.24
2023-09-06T12:21:31.532Z,67.16
2023-09-06T12:22:31.529Z,68.87
2023-09-06T12:23:31.628Z,82.82
2023-09-06T12:24:31.550Z,81.1
2023-09-06T12:25:31.565Z,175.19
2023-09-06T12:26:31.653Z,262.78
2023-09-06T12:27:31.593Z,375.2
2023-09-06T12:28:31.874Z,226.81
2023-09-06T12:29:31.567Z,204.3
2023-09-06T12:30:31.660Z,122.34
2023-09-06T12:31:31.653Z,138.36
2023-09-06T12:32:31.660Z,94.07
2023-09-06T12:33:31.667Z,143.5
2023-09-06T12:34:31.564Z,165.64
2023-09-06T12:35:31.575Z,221.67
2023-09-06T12:36:31.629Z,192.07
2023-09-06T12:37:31.567Z,102.27
2023-09-06T12:38:31.907Z,116.22
2023-09-06T12:39:31.598Z,232.44
2023-09-06T12:40:31.590Z,327
2023-09-06T12:41:31.629Z,202.1
2023-09-06T12:42:31.558Z,368.72
2023-09-06T12:43:31.553Z,336.54
2023-09-06T12:44:31.662Z,359.18
2023-09-06T12:45:31.535Z,79.76
2023-09-06T12:46:31.541Z,264.12
2023-09-06T12:47:31.628Z,174.81
2023-09-06T12:48:31.913Z,178.24
2023-09-06T12:49:31.593Z,356.12
2023-09-06T12:50:31.600Z,381.32
2023-09-06T12:51:31.529Z,396
2023-09-06T12:52:31.571Z,378.26
2023-09-06T12:53:31.537Z,376.55
2023-09-06T12:54:31.570Z,373.49
2023-09-06T12:55:31.587Z,65.94
2023-09-06T12:56:31.550Z,68.51
2023-09-06T12:57:31.560Z,370.43
2023-09-06T12:58:32.098Z,354.4
2023-09-06T12:59:31.524Z,340.95
2023-09-06T13:00:31.535Z,350
2023-09-06T13:01:31.694Z,315.75
2023-09-06T13:02:31.689Z,73.65
2023-09-06T13:03:31.818Z,312.69
2023-09-06T13:04:31.745Z,315.38
2023-09-06T13:05:31.678Z,263.27
2023-09-06T13:06:31.550Z,160.02
2023-09-06T13:07:31.575Z,311.83
2023-09-06T13:08:31.858Z,147.9
2023-09-06T13:09:31.559Z,89.31
2023-09-06T13:10:31.547Z,222.53
2023-09-06T13:11:31.548Z,298.01
2023-09-06T13:12:31.570Z,135.3
2023-09-06T13:13:31.554Z,66.8
2023-09-06T13:14:31.551Z,94.07
2023-09-06T13:15:31.628Z,69.73
2023-09-06T13:16:31.579Z,72.42
2023-09-06T13:17:31.880Z,64.1
2023-09-06T13:18:31.904Z,66.8
2023-09-06T13:19:31.568Z,129.68